INDIA METEOROLOGICAL DEPARTMENT, R.M.C. NEW DELHI
Dated:4 - 12 - 2016
METARS


Agartala   
VEAT 041000Z 00000KT 5000 HZ NSC 29/24 Q1012 NOSIG=
Ahmedabad  
VAAH 041000Z 05004KT 6000 NSC 31/12 Q1015 NOSIG=
Allahabad  
VEAB 040830Z 33003KT 2300 HZ SKC 25/17 Q1019 NOSIG=
Amritsar   
VIAR 041000Z 27006KT 2500 HZ FEW100 SCT200 25/09 Q1018 NOSIG=
Aurangabad 
VAAU 040900Z 20005KT 4000 HZ SCT020 SCT025 30/20 Q1017=
Bangalore  
VOBL 041000Z 10007KT 9999 SCT015 27/14 Q1017 NOSIG=
Baroda     
VABO 041000Z 02005KT 6000 NSC 31/11 Q1014 NOSIG=
Bhopal     
VABP 040900Z 05004KT 3000 HZ NSC 25/13 Q1020=
Bhubaneswar
VEBS 041000Z 07005KT 4000 HZ NSC 29/14 Q1014 NOSIG =
Chennai    
VOMM 041000Z 05010KT 7000 SCT018 SCT025 28/24 Q1011 NOSIG=
Coimbatore 
VOCB 041000Z 04008KT 6000 FEW015 29/19 Q1014 NOSIG=
Colombo    
VCBI 041010Z 33007KT 280V020 9000 FEW016 30/24 Q1010 NOSIG =
Delhi      
VIDP 041000Z 32006KT 2200 FU NSC 26/06 Q1018 NOSIG =
Dehradun   
VIDN 040930Z 27004KT 3000 HZ SCT080 24/13 Q1018 =
Gauhati    
VEGT 041000Z 03005KT 4000 HZ NSC 27/17 Q1014 NOSIG=
Gaya       
VEGY 041000Z 35006KT 2500 HZ NSC 25/16 Q1017 NOSIG=
Gaggal     
VIGG 040900Z 22003KT 5000 HZ NSC 22/11 Q1021=
Goa        
VOGO 040830Z 25007KT 6000 FEW018 SCT090 33/21 Q1011 NOSIG=
Hyderabad  
VOHS 041000Z 06007KT 6000 SCT020 SCT200 29/19 Q1016 NOSIG=
Imphal     
VEIM 041000Z 22003KT 6000 NSC 24/14 Q1017 NOSIG=
Indore     
VAID 041000Z 03002KT 3000 HZ NSC 27/14 Q1018 NOSIG=
Jabalpur   
VAJB 040900Z 27002KT 4000 HZ NSC 26/08 Q1019=
Jaipur     
VIJP 041000Z 23004KT 4000 HZ NSC 26/02 Q1019 NOSIG=
Khajuraho  
VEKO 040900Z 05004KT 3500 HZ NSC 27/19 Q1018=
Kochi      
COR VOCI 041000Z 03008KT 6000 FEW018 32/22 Q1010 NOSIG=
Kolkata    
VECC 041000Z 03009KT 3200 FU NSC 28/15 Q1014 NOSIG=
Kozhikode  
VOCL 041000Z 14004KT 8000 FEW015 33/20 Q1010 NOSIG=
Lucknow    
VILK 041000Z 00000KT 1000 R27/1200 FU NSC 20/17 Q1018 NOSIG=
Madurai    
VOMD 041000Z 02003KT 5000 HZ FEW018 30/22 Q1012 NOSIG=
Mohanbari  
VEMN 040930Z 07003KT 5000 HZ FEW025 29/19 Q1014 NOSIG=
Mumbai     
VABB 041000Z 29007KT 3500 FU SCT020 34/21 Q1012 NOSIG=
Nagpur     
VANP 040930Z 35003KT 2500 HZ NSC 30/15 Q1016 NOSIG=
Patna      
VEPT 041000Z 32005KT 2000 HZ NSC 23/18 Q1016 NOSIG=
Raipur     
VERP 041000Z 03001KT 5000 HZ NSC 29/14 Q1016 NOSIG=
Safdarjung 
VIDD 041000Z 31005KT 3000 FU NSC 26/07 Q1018 NOSIG=
Shimla     
VISM 041000Z 23002KT 5000 HZ NSC 18/07 Q1023=
Ranchi     
VERC 041000Z 34007KT 4000 HZ NSC 26/11 Q1018 NOSIG=
Trichy     
VOTR 041000Z 10006KT 5000 HZ SCT016 32/21 Q1011 NOSIG=
Trivandrum 
VOTV 041000Z 21006KT 6000 HZ FEW015 32/23 Q1010 NOSIG=
Udaipur    
VAUD 041000Z 34004KT 5000 HZ NSC 26/08 Q1019 NOSIG=
Varanasi   
VEBN 041000Z 18005KT 1400 R27/1500 BR NSC 23/19 Q1018=
Vizag      
VOVZ 041000Z 10010G20KT 5000 HZ NSC 30/19 Q1013 NOSIG =
Male       
VRMM 041000Z 00000KT 9999 SCT017TCU BKN260 30/24 Q1011 TEMPO 4000 SHRA SCT017CB=
Gan        
VRMG 041000Z 36003KT 9999 FEW017 FEW018CB BKN120 28/24 Q1011 CB NW=
Kathmandu  
VNKT 041000Z NIL=
Dhaka      
VGHS 041000Z 35006KT 4000 HZ NSC 28/14 Q1013 NOSIG=
Colombo    
VCBI 041010Z 33007KT 280V020 9000 FEW016 30/24 Q1010 NOSIG =
Karachi    
OPKC 040955Z 11005KT 5000 HZ NSC 30/06 Q1017 NOSIG=
Lahore     
OPLA 040955Z 25006KT 2500 HZ FEW200 25/10 Q1019 A30.07 BECMG 3000=
Leh        
VILH 040930Z VRB02KT 6000 FEW090 10/M20 Q1032 NOSIG RMK: AC=
Jammu      
VIJU 040930Z VRB01KT 4000 HAZE FEW250 24/07 Q1018 NOSIG=
Gorakhpur  
VEGK 040930Z 32005KT 0700 FG SKY OBS 19/17 Q1018 NOSIG=
Gwalior    
VIGR 040900Z 00000KT 2000 HZ NSC 26/10 Q1019=
Pune       
VAPO 040930Z 10009KT 6000 FEW025 SCT090 29/16 Q1017 NOSIG=
Chandigarh 
VICG 040830Z 31008KT 2700 HZ SCT250 25/08 Q1019 BECMG 3000=